createdAt,value
2022-12-31T00:00:33.830Z,80.07
2022-12-31T00:03:21.634Z,80.08
2022-12-31T00:05:49.554Z,80.24
2022-12-31T00:08:17.359Z,80.26
2022-12-31T00:10:45.305Z,80.35
2022-12-31T00:13:13.332Z,80.77
2022-12-31T00:15:41.960Z,80.67
2022-12-31T00:18:10.139Z,80.42
2022-12-31T00:20:41.933Z,80.42
2022-12-31T00:23:11.168Z,80.47
2022-12-31T00:25:39.025Z,80.11
2022-12-31T00:28:06.843Z,80.42
2022-12-31T00:30:35.119Z,81.11
2022-12-31T00:33:03.072Z,80.97
2022-12-31T00:35:31.392Z,81.13
2022-12-31T00:37:59.184Z,81.47
2022-12-31T00:40:28.641Z,81.32
2022-12-31T00:42:56.454Z,81.38
2022-12-31T00:45:24.235Z,81.48
2022-12-31T00:47:52.015Z,81.67
2022-12-31T00:50:19.857Z,81.90
2022-12-31T00:52:47.648Z,81.99
2022-12-31T00:55:15.521Z,82.08
2022-12-31T00:57:43.381Z,82.00
2022-12-31T01:00:11.544Z,82.24
2022-12-31T01:02:39.566Z,81.95
2022-12-31T01:05:08.519Z,81.66
2022-12-31T01:07:37.489Z,81.42
2022-12-31T01:10:05.786Z,81.37
2022-12-31T01:12:33.560Z,81.50
2022-12-31T01:15:01.334Z,81.36
2022-12-31T01:17:29.492Z,81.38
2022-12-31T01:19:57.473Z,81.16
2022-12-31T01:22:25.292Z,81.11
2022-12-31T01:24:53.162Z,80.88
2022-12-31T01:27:21.783Z,80.94
2022-12-31T01:29:49.647Z,80.80
2022-12-31T01:32:18.622Z,80.63
2022-12-31T01:34:47.425Z,80.33
2022-12-31T01:37:15.401Z,80.26
2022-12-31T01:39:43.263Z,80.21
2022-12-31T01:42:12.108Z,80.15
2022-12-31T01:44:39.841Z,80.13
2022-12-31T01:47:13.340Z,80.24
2022-12-31T01:49:44.575Z,80.51
2022-12-31T01:52:18.372Z,80.80
2022-12-31T01:54:52.245Z,80.67
2022-12-31T01:57:21.132Z,80.55
2022-12-31T01:59:49.252Z,80.58
2022-12-31T02:02:17.328Z,80.77
2022-12-31T02:04:45.269Z,81.01
2022-12-31T02:07:13.060Z,80.90
2022-12-31T02:09:42.258Z,80.84
2022-12-31T02:12:10.388Z,80.34
2022-12-31T02:14:42.052Z,80.88
2022-12-31T02:17:12.928Z,81.45
2022-12-31T02:19:59.829Z,81.58
2022-12-31T02:22:37.806Z,81.78
2022-12-31T02:25:08.825Z,81.57
2022-12-31T02:27:45.219Z,81.07
2022-12-31T02:30:15.309Z,81.33
2022-12-31T02:32:55.348Z,81.37
2022-12-31T02:35:37.512Z,81.34
2022-12-31T02:38:08.867Z,81.36
2022-12-31T02:40:37.240Z,81.43
2022-12-31T02:43:05.279Z,81.32
2022-12-31T02:45:39.121Z,81.36
2022-12-31T02:48:06.992Z,81.30
2022-12-31T02:50:55.551Z,81.29
2022-12-31T02:53:35.599Z,81.70
2022-12-31T02:56:11.240Z,81.87
2022-12-31T02:59:03.813Z,81.73
2022-12-31T03:01:53.956Z,81.93
2022-12-31T03:04:36.165Z,81.90
2022-12-31T03:07:08.764Z,81.88
2022-12-31T03:09:37.128Z,81.99
2022-12-31T03:12:25.321Z,81.87
2022-12-31T03:14:53.479Z,81.96
2022-12-31T03:17:21.321Z,82.17
2022-12-31T03:20:07.713Z,82.49
2022-12-31T03:22:37.472Z,82.92
2022-12-31T03:25:27.386Z,83.27
2022-12-31T03:27:55.290Z,83.29
2022-12-31T03:30:23.950Z,83.56
2022-12-31T03:32:51.939Z,83.74
2022-12-31T03:35:20.686Z,83.77
2022-12-31T03:37:49.853Z,83.82
2022-12-31T03:40:19.433Z,83.75
2022-12-31T03:42:47.149Z,83.60
2022-12-31T03:45:15.501Z,83.67
2022-12-31T03:47:43.264Z,83.56
2022-12-31T03:50:11.888Z,83.36
2022-12-31T03:52:40.063Z,82.37
2022-12-31T03:55:08.110Z,82.32
2022-12-31T03:57:36.394Z,82.70
2022-12-31T04:00:05.650Z,82.88
2022-12-31T04:02:33.553Z,82.91
2022-12-31T04:05:01.358Z,82.67
2022-12-31T04:07:29.252Z,81.79
2022-12-31T04:09:57.846Z,81.87
2022-12-31T04:12:25.904Z,81.48
2022-12-31T04:14:53.701Z,82.82
2022-12-31T04:17:21.511Z,83.19
2022-12-31T04:19:49.569Z,83.42
2022-12-31T04:22:17.655Z,83.72
2022-12-31T04:24:45.669Z,83.60
2022-12-31T04:27:13.796Z,83.48
2022-12-31T04:29:41.603Z,82.69
2022-12-31T04:32:10.621Z,83.49
2022-12-31T04:34:38.554Z,83.52
2022-12-31T04:37:06.625Z,83.47
2022-12-31T04:39:35.040Z,83.23
2022-12-31T04:42:02.971Z,83.31
2022-12-31T04:44:31.758Z,83.41
2022-12-31T04:46:59.630Z,83.30
2022-12-31T04:49:27.596Z,83.53
2022-12-31T04:51:55.414Z,83.30
2022-12-31T04:54:23.285Z,82.84
2022-12-31T04:56:51.017Z,82.75
2022-12-31T04:59:18.798Z,83.08
2022-12-31T05:01:46.932Z,83.40
2022-12-31T05:04:14.780Z,83.67
2022-12-31T05:06:42.510Z,83.27
2022-12-31T05:09:10.637Z,83.03
2022-12-31T05:11:39.354Z,82.68
2022-12-31T05:14:07.203Z,81.69
2022-12-31T05:16:35.191Z,82.10
2022-12-31T05:19:05.181Z,82.88
2022-12-31T05:21:33.146Z,83.40
2022-12-31T05:24:01.221Z,83.34
2022-12-31T05:26:29.190Z,83.16
2022-12-31T05:28:57.261Z,83.04
2022-12-31T05:31:27.452Z,83.10
2022-12-31T05:33:55.251Z,82.57
2022-12-31T05:36:23.006Z,81.58
2022-12-31T05:38:50.980Z,82.01
2022-12-31T05:41:18.734Z,82.69
2022-12-31T05:43:46.547Z,82.96
2022-12-31T05:46:16.400Z,83.47
2022-12-31T05:48:44.395Z,83.67
2022-12-31T05:51:12.261Z,83.46
2022-12-31T05:53:40.031Z,83.40
2022-12-31T05:56:08.101Z,83.51
2022-12-31T05:58:35.968Z,83.23
2022-12-31T06:01:03.903Z,83.11
2022-12-31T06:03:32.434Z,83.16
2022-12-31T06:06:01.444Z,83.12
2022-12-31T06:08:29.456Z,83.16
2022-12-31T06:10:57.559Z,83.18
2022-12-31T06:13:25.339Z,82.99
2022-12-31T06:15:53.262Z,83.07
2022-12-31T06:18:21.226Z,82.85
2022-12-31T06:20:49.122Z,82.75
2022-12-31T06:23:16.991Z,82.83
2022-12-31T06:25:44.788Z,83.16
2022-12-31T06:28:19.688Z,83.12
2022-12-31T06:30:48.788Z,82.86
2022-12-31T06:33:16.671Z,82.55
2022-12-31T06:35:44.519Z,82.64
2022-12-31T06:38:12.387Z,82.84
2022-12-31T06:40:40.249Z,81.99
2022-12-31T06:43:08.235Z,81.10
2022-12-31T06:45:36.147Z,81.23
2022-12-31T06:48:04.488Z,82.05
2022-12-31T06:50:32.747Z,82.70
2022-12-31T06:53:00.574Z,83.04
2022-12-31T06:55:29.112Z,83.39
2022-12-31T06:57:57.088Z,83.31
2022-12-31T07:00:25.034Z,83.19
2022-12-31T07:02:55.687Z,83.13
2022-12-31T07:05:42.208Z,82.95
2022-12-31T07:08:13.007Z,82.74
2022-12-31T07:11:00.149Z,82.81
2022-12-31T07:13:34.135Z,82.35
2022-12-31T07:16:17.373Z,82.69
2022-12-31T07:18:48.006Z,82.82
2022-12-31T07:21:17.088Z,82.89
2022-12-31T07:23:45.135Z,82.60
2022-12-31T07:26:25.216Z,82.69
2022-12-31T07:29:04.734Z,83.13
2022-12-31T07:31:51.576Z,83.24
2022-12-31T07:34:19.537Z,83.04
2022-12-31T07:36:59.422Z,82.89
2022-12-31T07:39:31.933Z,82.82
2022-12-31T07:42:31.951Z,82.74
2022-12-31T07:45:08.597Z,82.81
2022-12-31T07:47:36.832Z,82.86
2022-12-31T07:50:05.007Z,81.98
2022-12-31T07:52:32.932Z,82.35
2022-12-31T07:55:00.802Z,82.55
2022-12-31T07:57:34.245Z,83.00
2022-12-31T08:00:09.579Z,83.63
2022-12-31T08:02:42.998Z,83.70
2022-12-31T08:05:14.131Z,83.65
2022-12-31T08:08:00.583Z,83.16
2022-12-31T08:10:28.772Z,82.11
2022-12-31T08:13:00.767Z,82.14
2022-12-31T08:15:30.725Z,82.53
2022-12-31T08:17:58.873Z,82.34
2022-12-31T08:20:27.233Z,82.73
2022-12-31T08:23:05.404Z,82.66
2022-12-31T08:25:48.360Z,82.28
2022-12-31T08:28:31.078Z,81.87
2022-12-31T08:30:59.163Z,80.72
2022-12-31T08:33:44.802Z,78.22
2022-12-31T08:36:31.397Z,74.43
2022-12-31T08:39:05.347Z,72.17
2022-12-31T08:41:42.857Z,71.32
2022-12-31T08:44:11.093Z,70.49
2022-12-31T08:46:51.374Z,68.48
2022-12-31T08:49:19.455Z,65.66
2022-12-31T08:51:47.928Z,62.45
2022-12-31T08:54:16.233Z,59.71
2022-12-31T08:56:50.440Z,58.59
2022-12-31T08:59:34.253Z,57.11
2022-12-31T09:02:08.632Z,49.09
2022-12-31T09:04:39.423Z,48.44
2022-12-31T09:07:09.554Z,43.98
2022-12-31T09:09:50.819Z,43.14
2022-12-31T09:12:39.279Z,45.55
2022-12-31T09:15:18.306Z,45.26
2022-12-31T09:17:48.156Z,42.79
2022-12-31T09:20:19.665Z,43.05
2022-12-31T09:22:47.588Z,41.08
2022-12-31T09:25:16.906Z,36.87
2022-12-31T09:27:44.698Z,36.74
2022-12-31T09:30:13.873Z,38.92
2022-12-31T09:33:01.329Z,39.38
2022-12-31T09:35:29.591Z,38.07
2022-12-31T09:38:05.305Z,41.60
2022-12-31T09:40:46.451Z,36.97
2022-12-31T09:43:14.294Z,36.71
2022-12-31T09:46:00.682Z,38.16
2022-12-31T09:48:31.566Z,40.60
2022-12-31T09:51:02.864Z,42.65
2022-12-31T09:53:42.952Z,44.25
2022-12-31T09:56:23.096Z,47.49
2022-12-31T09:59:00.485Z,48.52
2022-12-31T10:01:37.777Z,49.18
2022-12-31T10:04:25.092Z,50.03
2022-12-31T10:07:10.676Z,51.13
2022-12-31T10:09:56.880Z,52.28
2022-12-31T10:12:40.100Z,53.62
2022-12-31T10:15:27.439Z,54.68
2022-12-31T10:17:59.465Z,55.56
2022-12-31T10:20:27.261Z,56.39
2022-12-31T10:23:13.656Z,57.47
2022-12-31T10:25:54.731Z,58.43
2022-12-31T10:28:25.471Z,59.60
2022-12-31T10:31:12.329Z,60.51
2022-12-31T10:33:43.399Z,61.75
2022-12-31T10:36:31.074Z,61.68
2022-12-31T10:38:58.930Z,62.09
2022-12-31T10:41:38.871Z,62.30
2022-12-31T10:44:25.516Z,62.56
2022-12-31T10:47:12.204Z,63.26
2022-12-31T10:49:46.715Z,63.35
2022-12-31T10:52:38.196Z,63.67
2022-12-31T10:55:28.317Z,64.33
2022-12-31T10:58:15.165Z,64.74
2022-12-31T11:00:58.576Z,65.25
2022-12-31T11:03:49.091Z,65.83
2022-12-31T11:06:39.916Z,65.58
2022-12-31T11:09:07.733Z,65.20
2022-12-31T11:11:35.498Z,65.25
2022-12-31T11:14:16.366Z,64.91
2022-12-31T11:16:53.553Z,65.52
2022-12-31T11:19:30.738Z,66.61
2022-12-31T11:22:04.476Z,67.23
2022-12-31T11:24:32.473Z,67.30
2022-12-31T11:27:03.270Z,66.66
2022-12-31T11:29:31.014Z,66.83
2022-12-31T11:32:06.672Z,66.06
2022-12-31T11:34:37.523Z,66.20
2022-12-31T11:37:17.792Z,65.69
2022-12-31T11:39:54.645Z,65.25
2022-12-31T11:42:25.912Z,65.89
2022-12-31T11:44:58.823Z,66.16
2022-12-31T11:47:49.704Z,65.80
2022-12-31T11:50:35.781Z,65.83
2022-12-31T11:53:12.755Z,65.08
2022-12-31T11:55:59.285Z,64.61
2022-12-31T11:58:28.718Z,64.22
2022-12-31T12:00:59.558Z,63.89
2022-12-31T12:03:27.980Z,63.65
2022-12-31T12:05:57.290Z,63.37
2022-12-31T12:08:26.866Z,62.77
2022-12-31T12:11:00.777Z,63.16
2022-12-31T12:13:28.533Z,62.36
2022-12-31T12:16:00.770Z,61.29
2022-12-31T12:18:36.250Z,60.72
2022-12-31T12:21:10.353Z,59.12
2022-12-31T12:23:39.480Z,59.13
2022-12-31T12:26:07.960Z,58.24
2022-12-31T12:28:44.534Z,57.78
2022-12-31T12:31:24.277Z,56.35
2022-12-31T12:33:52.488Z,55.93
2022-12-31T12:36:20.973Z,56.16
2022-12-31T12:38:49.420Z,54.69
2022-12-31T12:41:23.509Z,55.06
2022-12-31T12:44:01.956Z,55.85
2022-12-31T12:46:41.559Z,56.74
2022-12-31T12:49:22.767Z,57.53
2022-12-31T12:51:56.783Z,57.67
2022-12-31T12:54:43.690Z,57.60
2022-12-31T12:57:20.376Z,57.74
2022-12-31T13:00:04.304Z,58.01
2022-12-31T13:02:54.331Z,58.26
2022-12-31T13:05:34.260Z,58.12
2022-12-31T13:08:20.953Z,57.68
2022-12-31T13:10:48.713Z,57.61
2022-12-31T13:13:35.340Z,57.90
2022-12-31T13:16:12.309Z,58.57
2022-12-31T13:18:53.001Z,58.98
2022-12-31T13:21:36.137Z,59.31
2022-12-31T13:24:16.057Z,59.66
2022-12-31T13:26:54.631Z,59.90
2022-12-31T13:29:24.653Z,60.33
2022-12-31T13:31:54.802Z,60.84
2022-12-31T13:34:25.893Z,61.46
2022-12-31T13:36:55.724Z,62.23
2022-12-31T13:39:25.650Z,62.81
2022-12-31T13:42:00.565Z,63.21
2022-12-31T13:44:36.340Z,63.42
2022-12-31T13:47:13.757Z,63.94
2022-12-31T13:49:48.350Z,63.78
2022-12-31T13:52:28.864Z,63.94
2022-12-31T13:55:01.594Z,63.75
2022-12-31T13:57:39.946Z,63.12
2022-12-31T14:00:34.069Z,63.78
2022-12-31T14:03:05.114Z,65.81
2022-12-31T14:05:44.092Z,66.36
2022-12-31T14:08:12.271Z,66.66
2022-12-31T14:10:43.301Z,67.24
2022-12-31T14:13:34.504Z,67.43
2022-12-31T14:16:20.059Z,67.57
2022-12-31T14:18:54.022Z,68.10
2022-12-31T14:21:25.427Z,67.91
2022-12-31T14:23:56.066Z,68.23
2022-12-31T14:26:23.962Z,68.26
2022-12-31T14:29:12.155Z,68.30
2022-12-31T14:31:49.333Z,68.58
2022-12-31T14:34:17.256Z,69.04
2022-12-31T14:37:00.485Z,69.18
2022-12-31T14:39:28.249Z,68.63
2022-12-31T14:41:56.280Z,69.40
2022-12-31T14:44:30.041Z,69.89
2022-12-31T14:46:57.991Z,69.97
2022-12-31T14:49:41.220Z,70.20
2022-12-31T14:52:08.996Z,70.48
2022-12-31T14:54:37.779Z,70.41
2022-12-31T14:57:17.840Z,70.01
2022-12-31T14:59:58.367Z,69.98
2022-12-31T15:02:31.087Z,69.51
2022-12-31T15:05:12.963Z,69.18
2022-12-31T15:07:46.937Z,68.83
2022-12-31T15:10:17.917Z,68.87
2022-12-31T15:12:52.031Z,68.79
2022-12-31T15:15:26.093Z,69.18
2022-12-31T15:18:06.096Z,69.28
2022-12-31T15:20:44.206Z,69.73
2022-12-31T15:23:13.324Z,70.23
2022-12-31T15:25:47.006Z,71.47
2022-12-31T15:28:30.182Z,71.39
2022-12-31T15:31:19.630Z,71.42
2022-12-31T15:33:54.124Z,71.46
2022-12-31T15:36:23.816Z,71.79
2022-12-31T15:39:03.175Z,71.80
2022-12-31T15:41:42.950Z,72.35
2022-12-31T15:44:21.338Z,73.28
2022-12-31T15:46:52.784Z,72.63
2022-12-31T15:49:23.824Z,72.11
2022-12-31T15:51:51.830Z,71.69
2022-12-31T15:54:41.557Z,72.39
2022-12-31T15:57:16.238Z,72.98
2022-12-31T15:59:46.024Z,73.14
2022-12-31T16:02:32.406Z,73.60
2022-12-31T16:05:01.112Z,73.72
2022-12-31T16:07:29.279Z,73.60
2022-12-31T16:09:59.376Z,73.58
2022-12-31T16:12:33.156Z,73.83
2022-12-31T16:15:03.530Z,73.55
2022-12-31T16:17:31.260Z,73.39
2022-12-31T16:20:00.249Z,73.78
2022-12-31T16:22:29.995Z,74.78
2022-12-31T16:25:29.813Z,74.61
2022-12-31T16:27:49.988Z,74.90
2022-12-31T16:30:28.624Z,75.15
2022-12-31T16:32:59.257Z,75.01
2022-12-31T16:35:28.754Z,75.85
2022-12-31T16:38:03.901Z,74.52
2022-12-31T16:40:31.959Z,74.44
2022-12-31T16:42:59.931Z,75.57
2022-12-31T16:45:35.101Z,76.72
2022-12-31T16:48:20.549Z,76.19
2022-12-31T16:50:50.640Z,76.03
2022-12-31T16:53:19.971Z,75.57
2022-12-31T16:55:53.983Z,75.65
2022-12-31T16:58:42.126Z,74.36
2022-12-31T17:01:13.996Z,75.31
2022-12-31T17:03:45.006Z,74.76
2022-12-31T17:06:15.379Z,75.95
2022-12-31T17:08:49.521Z,75.85
2022-12-31T17:11:36.681Z,76.97
2022-12-31T17:14:07.848Z,77.62
2022-12-31T17:16:37.202Z,78.07
2022-12-31T17:19:05.303Z,77.93
2022-12-31T17:21:33.586Z,77.58
2022-12-31T17:24:03.374Z,76.62
2022-12-31T17:26:32.465Z,76.20
2022-12-31T17:29:01.419Z,77.28
2022-12-31T17:31:29.251Z,76.39
2022-12-31T17:34:12.687Z,77.03
2022-12-31T17:37:00.709Z,77.02
2022-12-31T17:39:41.255Z,77.31
2022-12-31T17:42:12.426Z,78.24
2022-12-31T17:44:44.004Z,78.69
2022-12-31T17:47:14.130Z,79.94
2022-12-31T17:49:45.060Z,79.48
2022-12-31T17:52:14.458Z,79.16
2022-12-31T17:54:42.576Z,79.71
2022-12-31T17:57:17.013Z,79.26
2022-12-31T17:59:44.752Z,79.62
2022-12-31T18:02:13.180Z,79.10
2022-12-31T18:04:42.282Z,79.28
2022-12-31T18:07:10.044Z,79.57
2022-12-31T18:09:38.094Z,79.31
2022-12-31T18:12:07.732Z,79.13
2022-12-31T18:14:35.585Z,79.09
2022-12-31T18:17:03.427Z,79.88
2022-12-31T18:20:02.802Z,79.37
2022-12-31T18:22:19.276Z,79.28
2022-12-31T18:24:51.296Z,79.66
2022-12-31T18:27:19.401Z,80.26
2022-12-31T18:29:48.136Z,79.97
2022-12-31T18:32:16.464Z,80.13
2022-12-31T18:34:44.262Z,78.84
2022-12-31T18:37:17.902Z,80.32
2022-12-31T18:39:49.289Z,80.69
2022-12-31T18:42:17.873Z,80.69
2022-12-31T18:44:46.244Z,80.55
2022-12-31T18:47:16.011Z,80.97
2022-12-31T18:49:45.129Z,81.00
2022-12-31T18:52:14.000Z,80.81
2022-12-31T18:54:42.037Z,80.49
2022-12-31T18:57:13.685Z,80.44
2022-12-31T18:59:42.273Z,80.36
2022-12-31T19:02:19.196Z,80.17
2022-12-31T19:04:48.634Z,79.83
2022-12-31T19:07:17.159Z,79.89
2022-12-31T19:09:46.413Z,79.79
2022-12-31T19:12:15.126Z,80.20
2022-12-31T19:14:43.297Z,79.93
2022-12-31T19:19:38.344Z,78.10
2022-12-31T19:22:06.192Z,79.42
2022-12-31T19:24:34.200Z,79.74
2022-12-31T19:27:02.417Z,79.89
2022-12-31T19:29:30.232Z,79.92
2022-12-31T19:32:01.051Z,79.92
2022-12-31T19:34:29.104Z,80.57
2022-12-31T19:36:57.158Z,80.59
2022-12-31T19:39:25.025Z,80.17
2022-12-31T19:41:58.844Z,79.78
2022-12-31T19:44:27.623Z,80.29
2022-12-31T19:46:55.403Z,80.01
2022-12-31T19:49:23.360Z,80.06
2022-12-31T19:51:51.219Z,79.98
2022-12-31T19:54:19.145Z,79.74
2022-12-31T19:56:47.173Z,79.58
2022-12-31T19:59:14.949Z,79.58
2022-12-31T20:01:43.037Z,79.57
2022-12-31T20:04:11.072Z,79.39
2022-12-31T20:06:39.060Z,79.41
2022-12-31T20:09:06.903Z,79.39
2022-12-31T20:11:34.943Z,80.21
2022-12-31T20:14:02.741Z,80.23
2022-12-31T20:16:32.084Z,80.05
2022-12-31T20:19:00.000Z,80.28
2022-12-31T20:21:28.746Z,80.85
2022-12-31T20:23:56.631Z,81.05
2022-12-31T20:26:25.360Z,80.69
2022-12-31T20:28:53.489Z,80.70
2022-12-31T20:31:22.861Z,80.58
2022-12-31T20:33:50.756Z,80.52
2022-12-31T20:36:18.664Z,81.06
2022-12-31T20:38:47.044Z,81.13
2022-12-31T20:41:16.112Z,81.15
2022-12-31T20:43:44.488Z,80.85
2022-12-31T20:46:23.343Z,80.73
2022-12-31T20:48:52.214Z,79.78
2022-12-31T20:51:20.669Z,79.53
2022-12-31T20:54:01.875Z,80.15
2022-12-31T20:56:30.648Z,80.40
2022-12-31T20:58:58.505Z,80.95
2022-12-31T21:01:36.307Z,80.83
2022-12-31T21:04:14.583Z,80.89
2022-12-31T21:06:42.573Z,80.91
2022-12-31T21:09:10.438Z,80.85
2022-12-31T21:11:56.716Z,80.87
2022-12-31T21:14:24.479Z,81.15
2022-12-31T21:16:52.306Z,81.23
2022-12-31T21:19:20.202Z,80.80
2022-12-31T21:21:48.469Z,80.19
2022-12-31T21:24:21.817Z,78.99
2022-12-31T21:26:52.189Z,79.04
2022-12-31T21:29:19.960Z,79.77
2022-12-31T21:31:48.027Z,80.23
2022-12-31T21:34:15.895Z,80.78
2022-12-31T21:36:43.839Z,81.01
2022-12-31T21:39:11.651Z,81.66
2022-12-31T21:41:52.147Z,80.19
2022-12-31T21:44:21.521Z,81.34
2022-12-31T21:47:34.698Z,82.15
2022-12-31T21:49:41.195Z,82.15
2022-12-31T21:52:27.514Z,82.22
2022-12-31T21:55:15.228Z,82.32
2022-12-31T21:58:23.674Z,82.62
2022-12-31T22:00:51.305Z,82.43
2022-12-31T22:03:25.026Z,82.46
2022-12-31T22:05:52.925Z,82.39
2022-12-31T22:08:21.561Z,82.24
2022-12-31T22:10:52.818Z,81.83
2022-12-31T22:13:21.185Z,82.13
2022-12-31T22:15:52.184Z,82.24
2022-12-31T22:18:20.693Z,82.29
2022-12-31T22:20:48.764Z,82.14
2022-12-31T22:23:16.649Z,82.13
2022-12-31T22:25:44.541Z,82.54
2022-12-31T22:28:37.529Z,82.36
2022-12-31T22:31:00.552Z,82.31
2022-12-31T22:33:28.622Z,82.40
2022-12-31T22:35:57.795Z,82.02
2022-12-31T22:38:26.036Z,81.87
2022-12-31T22:41:02.744Z,81.91
2022-12-31T22:43:31.501Z,81.74
2022-12-31T22:45:59.332Z,81.68
2022-12-31T22:48:27.067Z,81.43
2022-12-31T22:50:58.620Z,81.63
2022-12-31T22:53:26.485Z,81.49
2022-12-31T22:55:54.960Z,80.72
2022-12-31T22:58:23.653Z,81.08
2022-12-31T23:00:52.243Z,81.15
2022-12-31T23:03:20.131Z,81.11
2022-12-31T23:05:52.442Z,81.84
2022-12-31T23:08:23.540Z,82.25
2022-12-31T23:11:05.437Z,82.43
2022-12-31T23:13:56.082Z,82.55
2022-12-31T23:16:43.649Z,82.09
2022-12-31T23:19:30.456Z,81.87
2022-12-31T23:22:16.853Z,81.88
2022-12-31T23:24:44.722Z,81.84
2022-12-31T23:27:12.594Z,81.51
2022-12-31T23:29:46.575Z,81.19
2022-12-31T23:32:16.620Z,81.28
2022-12-31T23:34:45.011Z,81.43
2022-12-31T23:37:13.603Z,82.28
2022-12-31T23:39:42.194Z,82.19
2022-12-31T23:42:10.103Z,82.07
2022-12-31T23:44:37.906Z,81.96
2022-12-31T23:47:05.887Z,81.82
2022-12-31T23:49:33.737Z,81.95
2022-12-31T23:52:02.423Z,82.18
2022-12-31T23:54:30.289Z,81.84
2022-12-31T23:56:58.124Z,81.89
2022-12-31T23:59:26.032Z,82.18
